• Join FlightAware (Why Join?)
  • Login
  • US Flag 
08:44PM EDT


 

Airport Tracker/Info


-or-


 

Live Flight TrackerFlight Track Log ✈ UAL3852 ✈ 25-Oct-2013 ✈ KEWR - KDTW

Flight Track Log - Related Links

Times and Time Zones

All times are in EDT time to prevent confusion due to time zone crossing. See the UAL3852 flight status page for this flight to view local times or setup timezone preferences in your user account.

Time Position Orientation Groundspeed Altitude Reporting Facility
EDT Latitude Longitude Course Direction KTS MPH feet Rate Location/Type
01:31PM 40.6500 -74.1833 312° West 182 209 1,600  Level New York TRACON
01:32PM 40.6000 -74.2167 207° Southwest 227 261 2,700 1,800 Climbing New York TRACON
01:33PM 40.6500 -74.2667 323° Northwest 246 283 5,100 2,520 Climbing New York TRACON
01:34PM 40.7941 -74.6586 351° North  Level Estimated
01:34PM 40.7167 -74.3000 339° North 234 269 7,800  Level New York TRACON
01:35PM 40.8192 -74.7813 304° West  Level Estimated
01:35PM 40.7833 -74.3333 339° North 245 282 9,900  Level New York TRACON
01:36PM 40.8441 -74.9041 312° West  Level Estimated
01:36PM 40.8500 -74.3833 330° Northwest 288 331 10,300  Level New York TRACON
01:37PM 40.9200 -74.4125 343° North 349 402 11,800 1,620 Climbing New York Center
01:38PM 41.0161 -74.4011 North 330 380 13,500 1,500 Climbing New York Center
01:39PM 41.0978 -74.3917 North 329 379 14,800 1,320 Climbing New York Center
01:40PM 41.1981 -74.3806 North 329 379 16,200 1,140 Climbing New York Center
01:41PM 41.2817 -74.3739 North 335 386 17,100 1,080 Climbing New York Center
01:42PM 41.3858 -74.3742 360° North 335 386 18,400 1,200 Climbing New York Center
01:43PM 41.4478 -74.4547 316° Northwest 322 371 19,500 1,140 Climbing New York Center
01:44PM 41.4961 -74.5683 300° West 322 371 20,700 1,140 Climbing New York Center
01:45PM 41.5486 -74.6822 302° West 341 392 21,800 1,080 Climbing New York Center
01:46PM 41.5969 -74.7986 299° West 360 414 22,900 1,080 Climbing New York Center
01:47PM 41.6489 -74.9211 300° West 374 430 24,000 1,020 Climbing New York Center
01:48PM 41.6989 -75.0381 300° West 374 430 25,000 1,080 Climbing New York Center
01:49PM 41.7486 -75.1581 299° West 374 430 26,200 1,200 Climbing New York Center
01:50PM 41.8006 -75.2756 301° West 374 430 27,400 1,200 Climbing New York Center
01:51PM 41.8461 -75.3900 298° West 368 423 28,600 1,260 Climbing New York Center
01:53PM 41.9450 -75.6256 300° West 363 418 31,200 1,260 Climbing New York Center
01:54PM 41.9922 -75.7378 300° West 358 412 32,400 1,140 Climbing New York Center
01:55PM 42.0375 -75.8472 299° West 351 404 33,500 960 Climbing New York Center
01:56PM 42.0792 -75.9483 299° West 341 392 34,400 900 Climbing New York Center
01:57PM 42.1244 -76.0553 300° West 341 392 35,300 780 Climbing New York Center
01:58PM 42.1608 -76.1703 293° West 341 392 36,000 300 Climbing New York Center
01:59PM 42.1714 -76.2997 276° West 336 387 36,000  Level New York Center
02:00PM 42.1800 -76.4058 276° West 358 412 36,000  Level Cleveland Center
02:01PM 42.1903 -76.5486 276° West 379 436 36,000  Level Cleveland Center
02:02PM 42.2011 -76.6969 276° West 394 453 36,000  Level Cleveland Center
02:03PM 42.2122 -76.8500 276° West 409 471 36,000  Level Cleveland Center
02:04PM 42.2228 -77.0019 275° West 408 470 36,000  Level Cleveland Center
02:05PM 42.2342 -77.1569 276° West 413 475 36,000 -180 Level Cleveland Center
02:06PM 42.2456 -77.3092 276° West 409 471 35,700 -960 Descending Cleveland Center
02:07PM 42.2567 -77.4919 275° West 405 466 34,000 -840 Descending Cleveland Center
02:08PM 42.2947 -77.6300 290° West 396 456 34,000  Level Cleveland Center
02:09PM 42.3394 -77.7661 294° West 395 455 34,000  Level Cleveland Center
02:10PM 42.3828 -77.9033 293° West 394 453 34,000  Level Cleveland Center
02:11PM 42.4267 -78.0411 293° West 395 455 34,000  Level Cleveland Center
02:12PM 42.4714 -78.1819 293° West 401 461 34,000  Level Cleveland Center
02:13PM 42.5150 -78.3231 293° West 405 466 34,000  Level Cleveland Center
02:14PM 42.5664 -78.4867 293° West 396 456 34,000  Level Cleveland Center
02:15PM 42.6086 -78.6219 293° West 390 449 34,000 -360 Level Cleveland Center
02:16PM 42.6497 -78.7556 293° West 385 443 33,300 -1,080 Descending Cleveland Center
02:17PM 42.6917 -78.8911 293° West 390 449 31,800 -1,440 Descending Cleveland Center
02:18PM 42.7156 -79.0347 283° West 398 458 30,300 -900 Descending Cleveland Center
02:19PM 42.7150 -79.1856 270° West 399 459 30,000 -180 Descending Cleveland Center
02:20PM 42.7147 -79.3675 270° West 402 463 30,000  Level Cleveland Center
02:21PM 42.7144 -79.5192 270° West 402 463 30,000  Level Cleveland Center
02:22PM 42.7136 -79.6725 270° West 407 468 30,000  Level Cleveland Center
02:24PM 42.7147 -79.8247 271° West 405 466 30,000  Level Cleveland Center
02:25PM 42.7125 -79.9922 269° West 406 467 30,000  Level Cleveland Center
02:26PM 42.7119 -80.1467 270° West 406 467 30,000  Level Cleveland Center
02:27PM 42.7100 -80.3006 269° West 406 467 30,000  Level Cleveland Center
02:28PM 42.7097 -80.4550 270° West 405 466 30,000 -120 Level Cleveland Center
02:29PM 42.7075 -80.6086 269° West 406 467 29,800 -780 Descending Cleveland Center
02:30PM 42.7058 -80.7931 269° West 418 481 28,500 -900 Descending Cleveland Center
02:31PM 42.6997 -80.9461 267° West 406 467 28,000 -300 Descending Cleveland Center
02:32PM 42.6803 -81.1006 260° West 410 472 28,000 -120 Level Cleveland Center
02:33PM 42.6631 -81.2561 261° West 413 475 27,800 -840 Descending Cleveland Center
02:34PM 42.6447 -81.4111 261° West 414 476 26,300 -1,440 Descending Cleveland Center
02:35PM 42.6264 -81.5656 261° West 412 474 24,800 -1,560 Descending Cleveland Center
02:36PM 42.6081 -81.7228 261° West 418 481 23,100 -1,980 Descending Cleveland Center
02:37PM 42.5878 -81.8908 261° West 408 470 20,800 -2,100 Descending Cleveland Center
02:38PM 42.5697 -82.0328 260° West 389 448 18,800 -1,860 Descending Cleveland Center
02:39PM 42.5578 -82.1539 262° West 373 429 17,400 -1,680 Descending Cleveland Center
02:39PM 42.5542 -82.1703 253° West 375 432 17,100 -2,280 Descending Cleveland Center
02:40PM 42.5400 -82.2958 261° West 349 402 15,100 -2,160 Descending Cleveland Center
02:40PM 42.5369 -82.3014 233° Southwest 361 415 14,900 -2,100 Descending Cleveland Center
02:41PM 42.5250 -82.4214 262° West 337 388 13,000 -2,340 Descending Cleveland Center
02:41PM 42.5186 -82.4522 254° West 344 396 12,500 -1,020 Descending Cleveland Center
02:42PM 42.5058 -82.5464 260° West 342 394 12,000 -540 Descending Cleveland Center
02:42PM 42.4975 -82.5758 249° West 340 391 12,000 -600 Level Cleveland Center
02:43PM 42.4686 -82.6575 244° Southwest 313 360 11,400 -900 Descending Cleveland Center
02:43PM 42.4586 -82.6806 240° Southwest 318 366 11,100 -1,380 Descending Cleveland Center
02:44PM 42.4364 -82.7550 248° West 256 295 10,000 -1,380 Descending Cleveland Center
02:44PM 42.4294 -82.7711 240° Southwest 277 319 9,700 -1,800 Descending Cleveland Center
02:45PM 42.4153 -82.8456 256° West 247 284 8,200 -1,680 Descending Cleveland Center
02:45PM 42.4086 -82.8611 240° Southwest 256 295 8,000 -840 Descending Cleveland Center
02:46PM 42.3917 -82.9356 253° West 251 289 7,400 -780 Descending Cleveland Center
02:46PM 42.3881 -82.9494 251° West 251 289 7,200 -1,140 Descending Cleveland Center
02:47PM 42.3728 -83.0206 254° West 236 272 6,300 -1,380 Descending Cleveland Center
02:47PM 42.3633 -83.0494 246° West 238 274 5,800 -1,380 Descending Cleveland Center
02:48PM 42.3522 -83.1025 254° West 227 261 4,900 -1,440 Descending Cleveland Center
02:48PM 42.3436 -83.1306 247° West 230 265 4,300 -1,200 Descending Cleveland Center
02:49PM 42.3308 -83.1900 254° West 228 262 3,700 -900 Descending Cleveland Center
02:49PM 42.3253 -83.2128 252° West 230 265 3,400 -900 Descending Cleveland Center
02:50PM 42.3106 -83.2633 249° West 198 228 2,800 -900 Descending Cleveland Center
02:50PM 42.2975 -83.2764 216° Southwest 218 251 2,500 -840 Descending Cleveland Center
02:51PM 42.2703 -83.2972 210° Southwest 139 160 2,000 -900 Descending Cleveland Center
02:51PM 42.2597 -83.3031 202° Southwest 174 200 1,600 -840 Descending Cleveland Center
02:52PM 42.2389 -83.3211 213° Southwest 133 153 1,200 -720 Descending Cleveland Center
02:52PM 42.2294 -83.3264 202° Southwest 142 163 900 -660 Descending Cleveland Center